Time;durP1;ratioP1;P1;durP2;ratioP2;P2;SDS_P1;SDS_P2;PMS_P1;PMS_P2;Temp;Humidity;BMP_temperature;BMP_pressure;BME280_temperature;BME280_humidity;BME280_pressure;Samples;Min_cycle;Max_cycle;Signal;HPM_P1;HPM_P2
2023/10/04 00:01:00;;;;;;;15.27;4.43;;;;;;;12.57;97.24;101795.50;5063596;28;20050;-78
2023/10/04 00:03:27;;;;;;;11.05;4.20;;;;;;;12.53;97.19;101791.50;5061798;28;20071;-79
2023/10/04 00:05:54;;;;;;;11.68;4.75;;;;;;;12.54;97.48;101793.16;5071749;28;20063;-80
2023/10/04 00:08:23;;;;;;;18.60;4.85;;;;;;;12.52;97.73;101806.41;5071643;28;20384;-80
2023/10/04 00:10:52;;;;;;;17.63;4.82;;;;;;;12.56;97.58;101818.31;5071907;28;20103;-80
2023/10/04 00:13:19;;;;;;;11.82;4.55;;;;;;;12.56;97.61;101812.22;5075571;28;20044;-80
2023/10/04 00:15:47;;;;;;;10.93;4.57;;;;;;;12.55;97.69;101818.44;5071805;28;20080;-80
2023/10/04 00:18:15;;;;;;;8.95;4.50;;;;;;;12.55;97.70;101814.03;5062158;28;20088;-80
2023/10/04 00:20:43;;;;;;;8.07;4.18;;;;;;;12.52;97.97;101824.81;5062312;28;20059;-80
2023/10/04 00:23:13;;;;;;;14.10;4.22;;;;;;;12.50;98.32;101828.53;5062549;28;20045;-78
2023/10/04 00:25:40;;;;;;;12.52;4.65;;;;;;;12.50;98.64;101839.88;5061984;28;20055;-79
2023/10/04 00:28:07;;;;;;;10.70;4.40;;;;;;;12.44;98.75;101842.22;5065265;28;20045;-79
2023/10/04 00:30:34;;;;;;;8.63;4.35;;;;;;;12.50;99.18;101844.28;5062167;28;20049;-79
2023/10/04 00:33:04;;;;;;;11.05;4.40;;;;;;;12.45;99.40;101851.75;5059166;28;20132;-79
2023/10/04 00:35:31;;;;;;;10.07;4.03;;;;;;;12.47;99.63;101853.25;5059849;28;20049;-79
2023/10/04 00:38:00;;;;;;;12.32;4.00;;;;;;;12.43;99.69;101864.19;5059343;28;20519;-80
2023/10/04 00:40:31;;;;;;;11.55;4.07;;;;;;;12.41;99.97;101864.31;5061562;28;20136;-78
2023/10/04 00:43:05;;;;;;;8.23;4.05;;;;;;;12.41;100.00;101863.47;5079513;28;20065;-80
2023/10/04 00:45:34;;;;;;;10.43;4.43;;;;;;;12.39;100.00;101861.00;5062345;28;20495;-79
2023/10/04 00:48:09;;;;;;;9.50;4.10;;;;;;;12.44;100.00;101871.09;5067198;28;20061;-78
2023/10/04 00:50:36;;;;;;;10.13;3.67;;;;;;;12.40;100.00;101877.56;5068297;28;20075;-78
2023/10/04 00:53:07;;;;;;;9.60;3.65;;;;;;;12.39;100.00;101874.13;5060872;28;20080;-81
2023/10/04 00:55:37;;;;;;;10.25;4.00;;;;;;;12.42;100.00;101880.88;5069654;28;20048;-80
2023/10/04 00:58:07;;;;;;;8.82;4.20;;;;;;;12.40;100.00;101870.53;5059904;28;20083;-82
2023/10/04 01:00:33;;;;;;;11.50;4.38;;;;;;;12.37;100.00;101875.22;5070330;28;20053;-80
2023/10/04 01:03:02;;;;;;;12.80;4.20;;;;;;;12.34;100.00;101889.44;5063312;28;20056;-80
2023/10/04 01:05:30;;;;;;;9.50;3.58;;;;;;;12.37;100.00;101885.72;5063127;28;20052;-81
2023/10/04 01:08:00;;;;;;;13.90;4.57;;;;;;;12.28;100.00;101875.09;5062550;28;20491;-81
2023/10/04 01:10:32;;;;;;;14.48;4.40;;;;;;;12.35;100.00;101885.03;5064271;28;20041;-80
2023/10/04 01:12:59;;;;;;;8.65;3.90;;;;;;;12.28;100.00;101888.22;5074929;28;20601;-81
2023/10/04 01:15:32;;;;;;;12.05;4.07;;;;;;;12.23;100.00;101882.56;5082510;28;20056;-79
2023/10/04 01:18:00;;;;;;;13.80;4.40;;;;;;;12.25;100.00;101885.88;5074181;28;20082;-82
2023/10/04 01:20:30;;;;;;;14.27;4.22;;;;;;;12.29;100.00;101881.97;5076722;28;20073;-80
2023/10/04 01:23:05;;;;;;;10.13;4.30;;;;;;;12.27;100.00;101886.56;5080554;28;20087;-81
2023/10/04 01:25:33;;;;;;;11.20;4.10;;;;;;;12.27;100.00;101891.81;5071276;28;20506;-80
2023/10/04 01:28:01;;;;;;;16.45;4.45;;;;;;;12.33;100.00;101890.41;5068278;28;20079;-80
2023/10/04 01:30:29;;;;;;;18.08;5.65;;;;;;;12.30;100.00;101895.94;5069056;28;20052;-81
2023/10/04 01:32:56;;;;;;;12.45;4.38;;;;;;;12.32;100.00;101898.41;5079518;28;20048;-82
2023/10/04 01:35:24;;;;;;;15.48;5.03;;;;;;;12.23;100.00;101903.53;5063811;28;20470;-81
2023/10/04 01:37:51;;;;;;;12.93;4.53;;;;;;;12.25;100.00;101903.41;5068868;28;20052;-81
2023/10/04 01:40:24;;;;;;;13.18;4.53;;;;;;;12.30;100.00;101895.94;5079027;28;20049;-81
2023/10/04 01:42:51;;;;;;;10.30;4.25;;;;;;;12.23;100.00;101884.34;5066922;28;20049;-80
2023/10/04 01:45:21;;;;;;;10.95;4.10;;;;;;;12.19;100.00;101886.41;5073730;28;20064;-80
2023/10/04 01:47:47;;;;;;;16.00;4.38;;;;;;;12.21;100.00;101897.59;5068343;28;20510;-79
2023/10/04 01:50:14;;;;;;;7.55;4.32;;;;;;;12.26;100.00;101902.44;5075764;28;20060;-80
2023/10/04 01:52:45;;;;;;;14.55;5.15;;;;;;;12.23;100.00;101894.84;5080978;28;20068;-79
2023/10/04 01:55:16;;;;;;;13.27;4.22;;;;;;;12.23;100.00;101900.91;5070110;28;20041;-78
2023/10/04 01:57:44;;;;;;;12.43;4.07;;;;;;;12.24;100.00;101902.59;5060526;28;20133;-80
2023/10/04 02:00:15;;;;;;;12.95;4.70;;;;;;;12.26;100.00;101903.28;5072189;28;20469;-79
2023/10/04 02:02:43;;;;;;;12.77;4.53;;;;;;;12.27;100.00;101904.94;5067199;28;20483;-79
2023/10/04 02:05:12;;;;;;;13.15;4.82;;;;;;;12.25;100.00;101901.63;5077459;28;20056;-78
2023/10/04 02:07:39;;;;;;;12.00;4.70;;;;;;;12.26;100.00;101898.03;5077824;28;20048;-79
2023/10/04 02:10:14;;;;;;;11.32;4.35;;;;;;;12.31;100.00;101902.84;5063339;28;20044;-79
2023/10/04 02:12:42;;;;;;;10.55;4.10;;;;;;;12.33;100.00;101902.72;5075256;28;20055;-78
2023/10/04 02:15:15;;;;;;;14.02;4.70;;;;;;;12.29;100.00;101904.78;5081217;28;20036;-79
2023/10/04 02:17:43;;;;;;;;;;;;;;;12.30;100.00;101898.56;5080482;28;20131;-79
2023/10/04 02:20:13;;;;;;;13.23;4.63;;;;;;;12.27;100.00;101906.72;5068038;28;19921;-80
2023/10/04 02:22:40;;;;;;;10.95;4.60;;;;;;;12.28;100.00;101905.78;5069049;28;20049;-78
2023/10/04 02:25:09;;;;;;;16.05;4.57;;;;;;;12.28;100.00;101911.03;5064479;28;20045;-79
2023/10/04 02:27:35;;;;;;;16.20;5.20;;;;;;;12.27;100.00;101904.94;5053910;28;20053;-79
2023/10/04 02:30:13;;;;;;;12.50;4.15;;;;;;;12.30;100.00;101902.00;5060224;28;20073;-79
2023/10/04 02:32:42;;;;;;;12.80;5.18;;;;;;;12.33;100.00;101910.59;5062216;28;20131;-79
2023/10/04 02:35:10;;;;;;;12.13;3.97;;;;;;;12.33;100.00;101902.72;5053074;28;20049;-79
2023/10/04 02:37:37;;;;;;;12.20;4.10;;;;;;;12.33;100.00;101898.28;5054601;28;20083;-79
2023/10/04 02:40:14;;;;;;;10.45;4.50;;;;;;;12.31;100.00;101908.09;5062922;28;20048;-79
2023/10/04 02:42:42;;;;;;;11.98;4.32;;;;;;;12.36;100.00;101905.06;5065838;28;20053;-79
2023/10/04 02:45:12;;;;;;;10.93;4.40;;;;;;;12.34;100.00;101899.94;5065941;28;20052;-79
2023/10/04 02:47:41;;;;;;;8.70;4.50;;;;;;;12.35;100.00;101904.22;5059179;28;20127;-81
2023/10/04 02:50:10;;;;;;;17.17;4.80;;;;;;;12.43;100.00;101900.94;5066246;28;20131;-80
2023/10/04 02:52:37;;;;;;;10.02;4.78;;;;;;;12.41;100.00;101898.44;5057271;28;20060;-77
2023/10/04 02:55:05;;;;;;;15.00;4.32;;;;;;;12.41;100.00;101897.59;5065003;28;20483;-82
2023/10/04 02:57:31;;;;;;;10.45;4.78;;;;;;;12.39;100.00;101899.53;5064294;28;20048;-81
2023/10/04 02:59:59;;;;;;;16.77;4.60;;;;;;;12.36;100.00;101905.06;5062925;28;20227;-81
2023/10/04 03:02:25;;;;;;;16.33;4.80;;;;;;;12.38;100.00;101903.13;5068745;28;20053;-79
2023/10/04 03:04:53;;;;;;;12.98;4.63;;;;;;;12.39;100.00;101907.41;5061028;28;20144;-80
2023/10/04 03:07:20;;;;;;;13.13;4.32;;;;;;;12.40;100.00;101906.44;5068560;28;20056;-80
2023/10/04 03:09:47;;;;;;;11.95;4.18;;;;;;;12.39;100.00;101899.53;5065246;28;20112;-81
2023/10/04 03:12:15;;;;;;;11.98;4.25;;;;;;;12.38;100.00;101913.63;5080519;28;20114;-78
2023/10/04 03:14:42;;;;;;;13.70;4.75;;;;;;;12.34;100.00;101909.63;5077473;28;20056;-78
2023/10/04 03:17:10;;;;;;;14.88;4.60;;;;;;;12.38;100.00;101906.59;5061890;28;20049;-79
2023/10/04 03:19:37;;;;;;;11.85;4.88;;;;;;;12.38;100.00;101911.00;5063797;28;20077;-80
2023/10/04 03:22:06;;;;;;;10.43;4.30;;;;;;;12.38;100.00;101909.22;5068309;28;20056;-79
2023/10/04 03:24:32;;;;;;;15.75;4.57;;;;;;;12.41;100.00;101902.84;5060128;28;20051;-79
2023/10/04 03:26:59;;;;;;;10.93;4.38;;;;;;;12.39;100.00;101894.28;5068579;28;20092;-80
2023/10/04 03:29:28;;;;;;;11.85;4.80;;;;;;;12.38;100.00;101897.88;5072365;28;20132;-79
2023/10/04 03:31:54;;;;;;;17.08;4.43;;;;;;;12.37;100.00;101897.03;5069726;28;20060;-79
2023/10/04 03:34:22;;;;;;;10.55;4.65;;;;;;;12.38;100.00;101897.88;5077672;28;20091;-80
2023/10/04 03:36:49;;;;;;;14.32;5.00;;;;;;;12.36;100.00;101905.06;5068375;28;20053;-80
2023/10/04 03:39:17;;;;;;;13.25;4.28;;;;;;;12.36;100.00;101900.63;5077441;28;20147;-81
2023/10/04 03:41:47;;;;;;;13.75;4.18;;;;;;;12.39;100.00;101910.03;5063813;28;20067;-80
2023/10/04 03:44:14;;;;;;;15.77;4.80;;;;;;;12.35;100.00;101904.22;5064483;28;20063;-81
2023/10/04 03:46:41;;;;;;;12.32;4.47;;;;;;;12.38;100.00;101919.72;5066913;28;20075;-82
2023/10/04 03:49:08;;;;;;;14.02;4.75;;;;;;;12.41;100.00;101929.09;5071348;28;20464;-80
2023/10/04 03:51:34;;;;;;;14.25;4.63;;;;;;;12.36;100.00;101924.25;5069008;28;20139;-81
2023/10/04 03:54:05;;;;;;;15.02;5.32;;;;;;;12.36;100.00;101928.69;5059452;28;20049;-81
2023/10/04 03:56:33;;;;;;;10.52;4.75;;;;;;;12.34;100.00;101930.63;5061569;28;20109;-81
2023/10/04 04:10:35;;;;;;;12.63;4.45;;;;;;;12.19;100.00;101933.66;5005855;28;20052;-82
2023/10/04 04:17:01;;;;;;;14.45;4.10;;;;;;;12.22;100.00;101936.00;4971032;28;20090;-79
2023/10/04 04:20:14;;;;;;;14.68;3.92;;;;;;;12.11;100.00;101936.09;4989593;28;20105;-82
2023/10/04 04:37:40;;;;;;;16.70;4.95;;;;;;;11.92;100.00;101939.50;4986621;28;20069;-80
2023/10/04 04:59:33;;;;;;;15.23;4.80;;;;;;;11.65;100.00;101920.88;4842315;29;20062;-80
2023/10/04 05:09:45;;;;;;;14.15;4.53;;;;;;;11.66;100.00;101938.25;5001463;28;20058;-81
2023/10/04 05:17:16;;;;;;;15.75;4.40;;;;;;;11.45;100.00;101929.59;4999178;28;20506;-81
2023/10/04 05:33:13;;;;;;;10.68;4.63;;;;;;;11.42;100.00;101924.63;5128929;22;20517;-81
2023/10/04 05:35:41;;;;;;;12.98;5.07;;;;;;;11.47;100.00;101949.47;5124613;28;20515;-79
2023/10/04 05:38:08;;;;;;;12.55;5.10;;;;;;;11.52;100.00;101952.53;5117709;28;20055;-80
2023/10/04 05:40:38;;;;;;;14.93;5.32;;;;;;;11.51;100.00;101939.56;5130404;27;20078;-80
2023/10/04 05:43:06;;;;;;;11.45;5.25;;;;;;;11.46;100.00;101953.06;5106591;28;20363;-77
2023/10/04 05:45:34;;;;;;;12.98;4.53;;;;;;;11.50;100.00;101959.69;5091914;28;20257;-80
2023/10/04 05:48:01;;;;;;;18.23;5.13;;;;;;;11.48;100.00;101966.03;5111437;28;20048;-78
2023/10/04 05:50:32;;;;;;;15.50;5.10;;;;;;;11.49;100.00;101955.41;5100551;28;20134;-79
2023/10/04 05:53:01;;;;;;;11.10;5.03;;;;;;;11.61;100.00;101962.25;5085179;28;20052;-79
2023/10/04 05:55:28;;;;;;;14.82;4.90;;;;;;;11.68;100.00;101957.31;5095667;28;20055;-78
2023/10/04 05:57:55;;;;;;;14.23;4.90;;;;;;;11.73;100.00;101954.31;5090134;28;20498;-80
2023/10/04 06:00:27;;;;;;;17.90;4.97;;;;;;;11.66;100.00;101954.00;5099958;28;20071;-80
2023/10/04 06:02:55;;;;;;;16.63;5.13;;;;;;;11.71;100.00;101957.06;5099949;28;20291;-79
2023/10/04 06:05:22;;;;;;;15.25;5.35;;;;;;;11.77;100.00;101968.84;5098539;28;20119;-79
2023/10/04 06:07:51;;;;;;;17.35;5.28;;;;;;;11.79;100.00;101970.38;5097447;28;20112;-80
2023/10/04 06:10:19;;;;;;;11.95;4.78;;;;;;;11.85;100.00;101969.00;5092011;28;20094;-80
2023/10/04 06:12:46;;;;;;;12.77;5.22;;;;;;;11.92;100.00;101970.13;5096755;28;20135;-80
2023/10/04 06:15:14;;;;;;;16.27;5.57;;;;;;;11.92;100.00;101980.63;5094512;28;20044;-80
2023/10/04 06:17:43;;;;;;;21.17;6.65;;;;;;;12.05;100.00;101981.25;5096800;28;20456;-80
2023/10/04 06:20:24;;;;;;;12.60;4.68;;;;;;;12.12;100.00;101992.88;5103173;28;20110;-80
2023/10/04 06:22:57;;;;;;;19.67;4.97;;;;;;;12.15;100.00;101994.41;5091263;28;20051;-81
2023/10/04 06:25:25;;;;;;;18.60;5.35;;;;;;;12.40;100.00;102000.94;5100238;28;20058;-80
2023/10/04 06:27:52;;;;;;;13.88;5.35;;;;;;;12.82;100.00;102012.91;5083730;28;20075;-78
2023/10/04 06:30:23;;;;;;;14.23;4.70;;;;;;;13.15;100.00;101981.94;5088423;28;20076;-79
2023/10/04 06:32:52;;;;;;;13.52;4.78;;;;;;;13.52;100.00;101968.88;5085722;28;20054;-80
2023/10/04 06:35:22;;;;;;;14.90;5.22;;;;;;;13.51;99.20;101968.06;5092553;28;20533;-77
2023/10/04 06:37:50;;;;;;;15.95;4.80;;;;;;;13.68;98.03;101957.78;5095888;28;20369;-78
2023/10/04 06:40:19;;;;;;;13.10;4.55;;;;;;;13.84;96.77;101961.44;5093992;28;20135;-79
2023/10/04 06:42:46;;;;;;;13.55;4.63;;;;;;;13.68;96.36;101958.59;5090292;28;20044;-79
2023/10/04 06:45:14;;;;;;;11.63;5.35;;;;;;;13.81;96.33;101968.78;5097140;28;20521;-77
2023/10/04 06:47:43;;;;;;;14.70;4.68;;;;;;;14.02;95.32;101965.94;5095863;28;20131;-79
2023/10/04 06:50:13;;;;;;;14.10;4.82;;;;;;;14.38;93.82;101972.94;5089809;28;20059;-78
2023/10/04 06:52:40;;;;;;;16.25;4.72;;;;;;;14.63;92.47;101975.84;5094459;28;20061;-78
2023/10/04 06:55:08;;;;;;;14.85;4.50;;;;;;;14.66;91.31;101965.00;5095013;28;20455;-79
2023/10/04 06:57:37;;;;;;;13.23;4.43;;;;;;;14.76;90.54;101965.75;5094458;28;20452;-79
2023/10/04 07:00:12;;;;;;;12.30;4.25;;;;;;;15.11;89.88;101967.56;5095366;28;20091;-79
2023/10/04 07:02:40;;;;;;;15.25;4.85;;;;;;;15.06;89.45;101977.72;5101317;28;20051;-80
2023/10/04 07:05:08;;;;;;;13.85;5.20;;;;;;;15.12;88.48;101962.09;5098879;28;20147;-79
2023/10/04 07:07:35;;;;;;;14.32;4.47;;;;;;;15.47;87.77;101966.47;5097370;28;20120;-80
2023/10/04 07:10:01;;;;;;;10.73;4.43;;;;;;;15.47;87.26;101965.66;5084089;28;20122;-79
2023/10/04 07:12:29;;;;;;;15.75;4.43;;;;;;;15.38;87.02;101964.75;5092296;28;20521;-79
2023/10/04 07:14:57;;;;;;;10.95;3.75;;;;;;;15.41;86.83;101967.09;5092806;28;20052;-79
2023/10/04 07:17:24;;;;;;;12.35;4.65;;;;;;;15.61;86.56;101973.00;5095120;28;20063;-79
2023/10/04 07:19:51;;;;;;;13.85;4.78;;;;;;;15.80;85.72;101969.31;5085709;28;20521;-79
2023/10/04 07:22:21;;;;;;;13.63;4.60;;;;;;;15.68;86.22;101984.59;5087735;28;20146;-79
2023/10/04 07:24:48;;;;;;;19.15;5.05;;;;;;;15.91;85.13;101984.88;5098089;28;20048;-80
2023/10/04 07:27:16;;;;;;;11.27;4.40;;;;;;;16.21;83.99;101976.41;5107347;28;20052;-79
2023/10/04 07:29:43;;;;;;;12.40;4.28;;;;;;;16.14;84.27;101980.69;5116310;28;20089;-79
2023/10/04 07:32:11;;;;;;;13.75;4.50;;;;;;;16.42;83.29;101978.63;5095864;28;20055;-80
2023/10/04 07:34:38;;;;;;;13.30;4.38;;;;;;;16.12;83.07;101982.66;5098703;28;20413;-80
2023/10/04 07:37:05;;;;;;;10.77;4.82;;;;;;;16.18;83.86;101995.22;5090927;28;20052;-80
2023/10/04 07:39:32;;;;;;;10.60;4.53;;;;;;;16.53;82.98;101990.72;5097917;28;20437;-79
2023/10/04 07:41:59;;;;;;;11.65;4.10;;;;;;;16.56;82.67;101995.66;5097765;28;20150;-80
2023/10/04 07:44:30;;;;;;;13.40;4.47;;;;;;;16.58;82.23;101998.97;5099254;28;20055;-79
2023/10/04 07:46:59;;;;;;;10.43;3.90;;;;;;;16.88;82.05;102006.31;5094856;28;20094;-80
2023/10/04 07:49:27;;;;;;;13.57;4.15;;;;;;;17.12;81.04;101996.72;5103049;28;20116;-80
2023/10/04 07:51:53;;;;;;;11.00;4.43;;;;;;;17.11;80.33;101993.25;5095372;28;20051;-78
2023/10/04 07:54:20;;;;;;;11.35;4.30;;;;;;;17.04;81.23;102007.28;5098287;28;20531;-80
2023/10/04 07:56:48;;;;;;;14.07;4.35;;;;;;;16.96;80.84;101992.28;5100575;28;20083;-80
2023/10/04 07:59:15;;;;;;;13.70;4.63;;;;;;;16.99;81.92;102014.94;5095918;28;20544;-81
2023/10/04 08:01:42;;;;;;;12.18;3.95;;;;;;;17.18;81.39;102011.94;5105651;28;20048;-81
2023/10/04 08:04:09;;;;;;;9.77;4.28;;;;;;;17.40;80.54;102003.34;5105282;28;20051;-80
2023/10/04 08:06:37;;;;;;;10.80;4.65;;;;;;;17.53;80.24;102000.16;5096615;28;20079;-80
2023/10/04 08:09:04;;;;;;;16.67;4.95;;;;;;;17.44;80.06;101999.38;5118066;28;20052;-80
2023/10/04 08:11:31;;;;;;;12.30;4.13;;;;;;;17.52;80.03;102015.19;5119049;28;20039;-79
2023/10/04 08:13:58;;;;;;;15.05;4.40;;;;;;;17.50;79.75;102014.53;5121992;28;20478;-81
2023/10/04 08:16:25;;;;;;;12.50;4.20;;;;;;;17.64;79.64;102013.03;5096491;28;20133;-82
2023/10/04 08:18:53;;;;;;;9.57;4.18;;;;;;;17.80;79.33;101997.16;5096852;28;20052;-82
2023/10/04 08:21:22;;;;;;;9.88;4.00;;;;;;;18.13;78.76;101992.56;5110428;28;20054;-80
2023/10/04 08:23:50;;;;;;;14.63;4.50;;;;;;;17.84;79.56;101997.63;5123845;28;20104;-81
2023/10/04 08:26:18;;;;;;;15.15;4.63;;;;;;;18.02;78.81;101995.56;5121658;28;20090;-81
2023/10/04 08:28:44;;;;;;;13.35;5.10;;;;;;;17.63;79.51;101992.84;5113922;28;20056;-80
2023/10/04 08:31:13;;;;;;;11.95;4.25;;;;;;;17.54;80.51;102004.44;5093351;28;20144;-80
2023/10/04 08:33:43;;;;;;;15.40;4.70;;;;;;;18.01;79.60;101998.38;5092836;28;20048;-81
2023/10/04 08:36:14;;;;;;;13.93;5.22;;;;;;;17.96;79.53;102006.84;5121607;28;20134;-81
2023/10/04 08:38:42;;;;;;;20.17;5.45;;;;;;;17.63;79.51;101999.97;5102805;28;20143;-81
2023/10/04 08:41:10;;;;;;;11.70;4.25;;;;;;;17.55;80.15;102006.94;5087497;28;20080;-81
2023/10/04 08:43:37;;;;;;;10.43;4.32;;;;;;;17.79;79.95;102016.69;5101019;28;20108;-79
2023/10/04 08:46:07;;;;;;;12.38;4.55;;;;;;;18.03;79.20;102013.13;5110186;28;20044;-79
2023/10/04 08:48:34;;;;;;;9.32;3.75;;;;;;;17.34;80.18;102024.34;5123856;28;20047;-84
2023/10/04 08:51:13;;;;;;;13.32;4.15;;;;;;;17.51;81.40;102040.00;5110889;28;20044;-81
2023/10/04 08:53:48;;;;;;;12.88;4.65;;;;;;;17.56;81.02;102047.47;5105555;28;20390;-82
2023/10/04 08:56:42;;;;;;;12.70;4.00;;;;;;;17.93;80.71;102032.88;5107729;28;20052;-80
2023/10/04 08:59:11;;;;;;;17.40;4.60;;;;;;;17.74;80.14;102012.88;5105581;28;20109;-82
2023/10/04 09:01:42;;;;;;;12.90;4.40;;;;;;;17.90;79.62;102018.97;5127892;28;20051;-77
2023/10/04 09:07:10;;;;;;;14.93;4.15;;;;;;;17.19;81.68;102042.69;5123670;28;20113;-80
2023/10/04 09:09:58;;;;;;;11.75;4.60;;;;;;;16.89;82.61;102028.28;5117676;28;20044;-81
2023/10/04 09:12:31;;;;;;;12.57;4.68;;;;;;;16.98;83.16;102021.22;5113962;28;20063;-81
2023/10/04 09:15:01;;;;;;;11.27;4.78;;;;;;;17.27;82.97;102040.03;5103565;28;20113;-81
2023/10/04 09:17:56;;;;;;;13.02;4.55;;;;;;;17.45;81.98;102024.84;5109328;28;20171;-81
2023/10/04 09:20:34;;;;;;;16.52;4.80;;;;;;;17.31;81.98;102011.44;5112834;28;20569;-79
2023/10/04 09:23:03;;;;;;;14.38;5.00;;;;;;;17.68;82.16;102014.38;5083240;28;20040;-81
2023/10/04 09:26:05;;;;;;;13.80;6.20;;;;;;;17.61;81.14;101996.66;5099655;28;20418;-79
2023/10/04 09:32:09;;;;;;;12.65;4.50;;;;;;;18.23;79.76;101995.00;5071271;28;20075;-80
2023/10/04 09:34:38;;;;;;;13.23;4.63;;;;;;;18.29;79.30;101996.94;5108129;28;20490;-80
2023/10/04 09:37:23;;;;;;;15.20;5.30;;;;;;;18.37;79.00;101977.53;5103649;28;20105;-80
2023/10/04 09:40:05;;;;;;;12.15;4.40;;;;;;;18.23;78.64;101987.88;5119648;28;20565;-81
2023/10/04 09:42:57;;;;;;;10.93;4.28;;;;;;;18.17;79.60;102011.56;5107364;28;20163;-81
2023/10/04 09:45:45;;;;;;;11.45;4.28;;;;;;;18.26;79.68;102007.06;5116926;28;20047;-81
2023/10/04 09:48:23;;;;;;;11.55;4.50;;;;;;;18.11;79.10;102005.13;5092656;28;20417;-82
2023/10/04 09:50:50;;;;;;;13.90;4.47;;;;;;;17.97;79.43;101997.06;5090066;28;20058;-77
2023/10/04 09:53:38;;;;;;;14.13;4.20;;;;;;;17.87;78.24;101968.19;5097266;28;20117;-80
2023/10/04 09:56:06;;;;;;;13.65;5.22;;;;;;;18.02;76.89;101966.44;5094576;28;20054;-81
2023/10/04 09:58:34;;;;;;;12.95;4.28;;;;;;;18.15;78.23;102000.31;5099933;28;20078;-80
2023/10/04 10:01:15;;;;;;;13.40;4.10;;;;;;;18.45;77.65;102002.16;5087325;28;20048;-81
2023/10/04 10:03:59;;;;;;;12.40;4.15;;;;;;;18.36;77.72;102000.56;5096670;28;20052;-82
2023/10/04 10:06:41;;;;;;;11.23;4.63;;;;;;;18.03;77.93;101996.41;5086498;28;20048;-81
2023/10/04 10:09:22;;;;;;;12.88;4.50;;;;;;;18.39;77.73;102008.16;5092594;28;20333;-81
2023/10/04 10:11:58;;;;;;;15.32;4.88;;;;;;;18.52;76.96;102002.28;5098385;28;20051;-81
2023/10/04 10:14:32;;;;;;;11.68;4.72;;;;;;;18.47;77.38;102005.44;5091385;28;20056;-81
2023/10/04 10:17:04;;;;;;;10.00;4.40;;;;;;;18.63;76.06;101985.19;5094855;28;20066;-82
2023/10/04 10:19:41;;;;;;;;;;;;;;;18.56;76.19;101987.66;5103440;28;20509;-81
2023/10/04 10:22:16;;;;;;;10.52;4.68;;;;;;;18.63;75.99;101977.22;5084676;28;20030;-80
2023/10/04 10:25:14;;;;;;;9.93;4.32;;;;;;;19.14;74.39;101978.31;5109400;28;20053;-81
2023/10/04 10:27:45;;;;;;;14.50;4.60;;;;;;;19.00;74.73;101977.25;5099517;28;20052;-81
2023/10/04 10:30:18;;;;;;;12.25;4.70;;;;;;;18.99;74.73;101965.00;5094948;28;20044;-81
2023/10/04 10:33:26;;;;;;;13.85;4.70;;;;;;;19.29;74.63;101979.19;5099026;28;20055;-81
2023/10/04 10:36:04;;;;;;;14.82;4.78;;;;;;;19.41;73.93;101956.47;4997657;28;20102;-82
2023/10/04 10:38:44;;;;;;;15.50;5.10;;;;;;;19.54;73.30;101946.09;5095634;28;20433;-82
2023/10/04 10:42:03;;;;;;;11.77;4.63;;;;;;;19.18;73.51;101945.13;5105267;28;20071;-82
2023/10/04 10:44:48;;;;;;;11.80;5.00;;;;;;;19.21;73.55;101958.84;5120164;28;20053;-82
2023/10/04 10:47:20;;;;;;;14.90;5.30;;;;;;;19.18;73.94;101966.34;5100108;28;20472;-81
2023/10/04 10:50:03;;;;;;;12.85;4.80;;;;;;;19.00;73.34;101960.53;5121752;28;20084;-82
2023/10/04 10:52:49;;;;;;;;;;;;;;;18.86;73.70;101967.47;5110121;28;20052;-82
2023/10/04 10:55:27;;;;;;;12.73;5.13;;;;;;;18.79;74.17;101961.22;5090948;28;20341;-81
2023/10/04 10:58:07;;;;;;;12.68;5.05;;;;;;;18.76;74.72;101958.91;5106202;28;20043;-81
2023/10/04 11:00:43;;;;;;;12.10;4.80;;;;;;;18.45;74.65;101959.75;5110129;28;20043;-82
2023/10/04 11:03:10;;;;;;;12.05;5.13;;;;;;;18.41;74.03;101969.06;5103343;28;20062;-80
2023/10/04 11:05:40;;;;;;;11.77;4.80;;;;;;;18.52;73.43;101950.09;5109366;28;20052;-82
2023/10/04 11:08:23;;;;;;;15.73;5.53;;;;;;;18.71;73.31;101963.91;5117912;28;20047;-82
2023/10/04 11:11:21;;;;;;;10.50;5.07;;;;;;;18.65;73.01;101938.94;5103337;28;20063;-80
2023/10/04 11:13:53;;;;;;;14.13;5.22;;;;;;;18.82;72.55;101951.06;5097275;28;20054;-81
2023/10/04 11:16:23;;;;;;;;;;;;;;;18.69;72.84;101963.28;5109485;28;20142;-80
2023/10/04 11:19:10;;;;;;;12.10;4.80;;;;;;;18.49;73.74;101950.44;5113353;28;19928;-80
2023/10/04 11:25:02;;;;;;;16.15;5.60;;;;;;;18.12;73.78;101952.97;5117682;28;20059;-81
2023/10/04 11:27:51;;;;;;;13.07;5.50;;;;;;;18.28;73.57;101952.91;5114956;27;20502;-81
2023/10/04 11:30:33;;;;;;;13.77;6.15;;;;;;;18.23;73.08;101942.84;5112982;28;20139;-81
2023/10/04 11:41:01;;;;;;;13.38;5.50;;;;;;;18.07;72.41;101921.72;5090784;28;20055;-83
2023/10/04 11:44:04;;;;;;;14.20;5.50;;;;;;;18.28;72.40;101931.72;5003435;28;20527;-86
2023/10/04 11:47:05;;;;;;;13.13;6.20;;;;;;;18.34;73.00;101938.97;5015674;28;20157;-84
2023/10/04 12:06:25;;;;;;;11.68;5.53;;;;;;;18.13;72.68;101912.25;5202614;22;20063;-81
2023/10/04 12:16:13;;;;;;;18.23;6.45;;;;;;;18.31;70.49;101882.84;5086816;28;20095;-84
2023/10/04 12:18:51;;;;;;;15.18;6.45;;;;;;;18.04;70.65;101894.75;5051388;28;20131;-82
2023/10/04 12:25:09;;;;;;;18.95;6.20;;;;;;;18.33;71.84;101897.56;5072528;28;20580;-82
2023/10/04 12:34:42;;;;;;;15.45;6.50;;;;;;;18.52;70.05;101864.44;5041268;28;20057;-83
2023/10/04 12:44:39;;;;;;;14.82;6.55;;;;;;;18.36;69.82;101869.88;5071935;28;21052;-83
2023/10/04 13:17:12;;;;;;;16.42;6.68;;;;;;;18.47;71.57;101895.97;4956855;28;20120;-82
2023/10/04 13:34:00;;;;;;;16.52;6.50;;;;;;;18.45;71.03;101879.41;4805596;29;20201;-82
2023/10/04 13:40:08;;;;;;;18.40;7.03;;;;;;;18.34;71.29;101863.94;5000140;28;20588;-84
2023/10/04 14:24:10;;;;;;;15.30;6.40;;;;;;;18.65;72.34;101853.28;4919440;29;20074;-84
2023/10/04 14:30:23;;;;;;;12.85;6.78;;;;;;;18.70;72.45;101841.13;4989874;28;19926;-82
2023/10/04 14:52:22;;;;;;;18.13;5.72;;;;;;;18.07;73.66;101820.25;4977922;28;20631;-82
2023/10/04 15:18:58;;;;;;;14.82;5.85;;;;;;;17.90;76.67;101828.31;4986099;28;20046;-83
2023/10/04 15:29:28;;;;;;;12.55;5.43;;;;;;;17.83;76.51;101800.06;4957755;28;20059;-84
2023/10/04 15:46:52;;;;;;;;;;;;;;;;;;;;;
2023/10/04 15:49:22;;;;;;;14.70;6.32;;;;;;;17.73;77.83;101815.34;4868766;28;20102;-83
2023/10/04 15:55:17;;;;;;;10.55;4.93;;;;;;;17.67;78.29;101810.72;5011056;28;20085;-83
2023/10/04 15:58:03;;;;;;;13.45;5.75;;;;;;;17.66;78.38;101804.63;5025482;28;20063;-84
2023/10/04 16:10:33;;;;;;;13.27;6.28;;;;;;;17.81;77.29;101786.16;5070076;28;20057;-85
2023/10/04 16:15:51;;;;;;;13.18;6.18;;;;;;;17.38;78.31;101790.19;5081799;28;20056;-82
2023/10/04 16:18:28;;;;;;;13.90;6.35;;;;;;;17.25;79.17;101790.72;5083184;28;20076;-82
2023/10/04 16:20:56;;;;;;;11.70;5.97;;;;;;;17.15;80.52;101795.38;5076311;28;20522;-83
2023/10/04 16:23:23;;;;;;;11.73;5.40;;;;;;;17.10;80.70;101795.06;5083953;28;20056;-83
2023/10/04 16:25:50;;;;;;;12.77;5.40;;;;;;;17.01;80.87;101790.81;5091966;28;20127;-83
2023/10/04 16:28:57;;;;;;;12.77;5.68;;;;;;;17.05;81.50;101807.97;5084992;28;20060;-85
2023/10/04 16:31:54;;;;;;;12.93;5.53;;;;;;;17.02;81.31;101798.56;5071919;28;20052;-83
2023/10/04 16:34:33;;;;;;;13.77;5.70;;;;;;;17.00;81.47;101803.22;5078202;28;20086;-83
2023/10/04 16:37:10;;;;;;;13.15;6.10;;;;;;;16.98;81.98;101796.44;5094399;28;20056;-82
2023/10/04 16:39:44;;;;;;;11.63;5.38;;;;;;;16.87;82.82;101803.75;5079598;28;20487;-83
2023/10/04 16:42:35;;;;;;;14.93;6.15;;;;;;;16.71;82.75;101803.75;5085064;28;20048;-83
2023/10/04 16:45:32;;;;;;;14.27;5.50;;;;;;;16.54;82.63;101775.69;5076781;28;20037;-82
2023/10/04 16:48:04;;;;;;;12.48;5.40;;;;;;;16.55;83.22;101806.38;5055996;28;20068;-82
2023/10/04 16:50:31;;;;;;;13.90;6.20;;;;;;;16.49;83.44;101809.72;5079934;28;20052;-84